Time;durP1;ratioP1;P1;durP2;ratioP2;P2;SDS_P1;SDS_P2;PMS_P1;PMS_P2;Temp;Humidity;BMP_temperature;BMP_pressure;BME280_temperature;BME280_humidity;BME280_pressure;Samples;Min_cycle;Max_cycle;Signal;HPM_P1;HPM_P2
2022/03/04 00:02:47;;;;;;;;;;;-0.10;96.40;;;-1.26;54.68;95552.66;10522390;28;2016;-73
2022/03/04 00:07:52;;;;;;;;;;;-0.10;96.80;;;-1.28;55.00;95567.03;10522310;28;1983;-71
2022/03/04 00:12:55;;;;;;;;;;;-0.20;96.80;;;-1.27;54.55;95569.50;10500448;28;1892;-71
2022/03/04 00:17:58;;;;;;;;;;;-0.20;97.00;;;-1.37;56.34;95572.53;10511561;28;1835;-72
2022/03/04 00:23:00;;;;;;;;;;;-0.30;98.50;;;-1.41;56.23;95570.50;10501623;28;1864;-71
2022/03/04 00:28:03;;;;;;;;;;;-0.30;99.90;;;-1.48;56.35;95572.34;10524673;28;1981;-71
2022/03/04 00:33:06;;;;;;;;;;;-0.40;99.90;;;-1.52;56.56;95571.94;10499786;28;1826;-70
2022/03/04 00:38:09;;;;;;;;;;;-0.40;99.90;;;-1.68;57.27;95572.34;10504613;28;1969;-71
2022/03/04 00:43:12;;;;;;;;;;;-0.50;98.50;;;-1.56;56.44;95585.72;10517402;28;1806;-70
2022/03/04 00:48:15;;;;;;;;;;;-0.60;98.80;;;-1.59;56.92;95581.69;10515125;28;2021;-71
2022/03/04 00:53:18;;;;;;;;;;;-0.50;98.90;;;-1.57;56.78;95576.19;10503644;28;1918;-71
2022/03/04 00:58:21;;;;;;;;;;;-0.50;99.40;;;-1.60;57.40;95579.22;10512722;28;1832;-71
2022/03/04 01:03:24;;;;;;;;;;;-0.60;99.30;;;-1.72;57.34;95574.59;10520780;28;1862;-71
2022/03/04 01:08:27;;;;;;;;;;;-0.60;99.30;;;-1.78;57.96;95574.53;10517400;28;1969;-72
2022/03/04 01:13:31;;;;;;;;;;;-0.70;99.60;;;-1.85;58.42;95571.09;10505584;28;1897;-70
2022/03/04 01:18:34;;;;;;;;;;;-0.70;99.90;;;-1.85;58.26;95566.63;10511165;28;1972;-71
2022/03/04 01:23:38;;;;;;;;;;;-0.70;99.90;;;-1.77;57.35;95563.84;10498410;28;2329;-70
2022/03/04 01:28:40;;;;;;;;;;;-0.80;99.90;;;-1.87;57.79;95555.50;10507972;28;1948;-70
2022/03/04 01:33:43;;;;;;;;;;;-0.80;99.90;;;-1.89;57.76;95567.25;10511780;28;2197;-71
2022/03/04 01:38:46;;;;;;;;;;;-0.80;99.90;;;-1.91;57.96;95554.25;10503145;28;1849;-71
2022/03/04 01:43:49;;;;;;;;;;;-0.90;99.90;;;-1.87;57.60;95555.50;10508516;28;1853;-70
2022/03/04 01:48:52;;;;;;;;;;;-0.80;99.90;;;-1.88;58.06;95551.25;10509969;28;1977;-70
2022/03/04 01:53:55;;;;;;;;;;;-0.90;99.90;;;-1.93;58.05;95553.66;10501993;28;1903;-70
2022/03/04 01:58:58;;;;;;;;;;;-0.90;99.90;;;-2.00;58.34;95543.13;10521662;28;1943;-69
2022/03/04 02:04:01;;;;;;;;;;;-1.00;99.90;;;-2.09;58.91;95539.06;10516890;28;1999;-70
2022/03/04 02:09:04;;;;;;;;;;;-1.00;99.90;;;-2.16;58.90;95543.53;10512679;28;2038;-71
2022/03/04 02:14:07;;;;;;;;;;;-1.10;99.90;;;-2.22;59.63;95533.78;10548790;22;3546;-70
2022/03/04 02:19:11;;;;;;;;;;;-1.10;99.90;;;-2.31;60.11;95543.66;10536358;28;1997;-70
2022/03/04 02:24:22;;;;;;;;;;;-1.20;99.90;;;-2.43;60.96;95541.81;10509673;28;2012;-70
2022/03/04 02:29:34;;;;;;;;;;;-1.30;99.90;;;-2.42;60.66;95536.34;10534666;28;2263;-70
2022/03/04 02:34:40;;;;;;;;;;;-1.30;99.90;;;-2.68;61.63;95533.63;10532159;28;1870;-69
2022/03/04 02:39:42;;;;;;;;;;;-1.40;99.90;;;-2.65;62.50;95528.00;10553658;28;1752;-69
2022/03/04 02:44:45;;;;;;;;;;;-1.50;99.90;;;-2.78;62.67;95518.22;10509294;28;1937;-70
2022/03/04 02:49:49;;;;;;;;;;;-1.60;99.90;;;-2.80;63.57;95518.44;10500419;28;1910;-70
2022/03/04 02:54:52;;;;;;;;;;;-1.60;99.90;;;-2.64;62.80;95514.63;10524083;28;1800;-68
2022/03/04 02:59:56;;;;;;;;;;;-1.60;99.90;;;-2.59;62.79;95516.69;10519652;28;2190;-69
2022/03/04 03:04:58;;;;;;;;;;;-1.60;99.90;;;-2.64;62.90;95508.56;10523356;28;1851;-70
2022/03/04 03:10:01;;;;;;;;;;;-1.50;99.90;;;-2.83;64.00;95510.91;10517905;28;1988;-69
2022/03/04 03:15:04;;;;;;;;;;;-1.70;99.90;;;-2.77;63.20;95515.41;10516120;28;1819;-70
2022/03/04 03:20:07;;;;;;;;;;;-1.60;99.90;;;-2.69;63.76;95518.84;10503942;28;1839;-70
2022/03/04 03:25:10;;;;;;;;;;;-1.60;99.90;;;-2.60;63.12;95522.94;10519620;28;1855;-69
2022/03/04 03:30:13;;;;;;;;;;;-1.60;99.90;;;-2.52;62.94;95517.50;10516647;28;1977;-68
2022/03/04 03:35:16;;;;;;;;;;;-1.60;99.90;;;-2.58;63.15;95528.81;10523490;28;1844;-69
2022/03/04 03:40:18;;;;;;;;;;;-1.50;99.90;;;-2.63;63.57;95524.13;10517934;28;1859;-68
2022/03/04 03:45:22;;;;;;;;;;;-1.60;99.90;;;-2.71;64.21;95513.81;10499941;28;1866;-68
2022/03/04 03:50:25;;;;;;;;;;;-1.60;99.90;;;-2.99;65.47;95527.03;10502955;28;1995;-70
2022/03/04 03:55:28;;;;;;;;;;;-1.80;99.90;;;-2.89;64.96;95531.94;10526399;28;1838;-70
2022/03/04 04:00:31;;;;;;;;;;;-1.80;99.90;;;-2.90;64.80;95544.28;10505613;28;1884;-70
2022/03/04 04:05:34;;;;;;;;;;;-1.90;99.90;;;-2.86;64.94;95545.53;10518027;28;1898;-70
2022/03/04 04:10:37;;;;;;;;;;;-1.90;99.90;;;-2.94;64.46;95548.28;10492234;28;1977;-71
2022/03/04 04:15:39;;;;;;;;;;;-1.80;99.90;;;-2.95;65.05;95538.78;10502820;28;1831;-68
2022/03/04 04:20:42;;;;;;;;;;;-1.90;99.90;;;-3.07;65.90;95550.84;10520253;28;1832;-69
2022/03/04 04:25:45;;;;;;;;;;;-1.90;99.90;;;-2.99;65.52;95555.94;10520714;28;1848;-70
2022/03/04 04:30:48;;;;;;;;;;;-2.00;99.90;;;-2.89;65.32;95559.03;10510363;28;1984;-70
2022/03/04 04:35:51;;;;;;;;;;;-1.90;99.90;;;-3.12;65.82;95559.31;10500761;28;1808;-70
2022/03/04 04:40:54;;;;;;;;;;;-2.00;99.90;;;-3.10;66.14;95567.84;10515788;28;1791;-70
2022/03/04 04:45:57;;;;;;;;;;;-2.00;99.90;;;-3.13;65.69;95570.84;10498240;28;1800;-68
2022/03/04 04:51:00;;;;;;;;;;;-2.10;99.90;;;-3.28;66.29;95573.59;10516659;28;1914;-69
2022/03/04 04:56:05;;;;;;;;;;;-2.20;99.90;;;-3.35;67.04;95579.81;10513524;28;1753;-68
2022/03/04 05:01:08;;;;;;;;;;;-2.20;99.90;;;-3.19;66.31;95590.03;10498914;28;1514;-71
2022/03/04 05:06:12;;;;;;;;;;;-2.10;99.90;;;-3.37;66.87;95587.06;10519700;28;1792;-69
2022/03/04 05:11:15;;;;;;;;;;;-2.20;99.90;;;-3.56;67.42;95585.94;10524076;28;1918;-70
2022/03/04 05:16:18;;;;;;;;;;;;;;;-3.56;67.58;95585.94;10505734;28;1883;-70
2022/03/04 05:21:21;;;;;;;;;;;-2.40;99.90;;;-3.54;67.84;95591.81;10495284;28;1840;-71
2022/03/04 05:26:24;;;;;;;;;;;-2.40;99.90;;;-3.55;69.22;95592.81;10499012;28;1852;-70
2022/03/04 05:31:27;;;;;;;;;;;-2.50;99.90;;;-3.66;70.81;95593.31;10491944;28;1906;-71
2022/03/04 05:36:30;;;;;;;;;;;-2.50;99.90;;;-3.77;69.38;95602.50;10519066;28;1875;-71
2022/03/04 05:41:33;;;;;;;;;;;-2.50;99.90;;;-3.81;69.49;95603.91;10520402;28;1807;-70
2022/03/04 05:46:35;;;;;;;;;;;-2.70;99.90;;;-3.60;68.20;95618.84;10502980;28;1787;-69
2022/03/04 05:51:39;;;;;;;;;;;-2.60;99.90;;;-3.71;68.64;95625.41;10531202;28;1914;-70
2022/03/04 05:56:41;;;;;;;;;;;-2.60;99.90;;;-3.69;68.28;95625.22;10500334;28;1842;-70
2022/03/04 06:01:44;;;;;;;;;;;-2.60;99.90;;;-3.57;68.24;95635.03;10521305;28;2315;-68
2022/03/04 06:06:48;;;;;;;;;;;-2.60;99.90;;;-3.47;66.81;95629.47;10517577;28;1954;-70
2022/03/04 06:11:52;;;;;;;;;;;-2.50;99.90;;;-3.41;65.38;95639.22;10518695;28;2097;-70
2022/03/04 06:16:55;;;;;;;;;;;-2.50;99.90;;;-3.31;65.73;95647.59;10515873;28;1768;-70
2022/03/04 06:22:03;;;;;;;;;;;-2.40;99.90;;;-3.26;64.63;95644.38;10504943;28;1902;-69
2022/03/04 06:27:06;;;;;;;;;;;-2.30;99.90;;;-3.23;64.49;95651.91;10513757;28;1800;-69
2022/03/04 06:32:09;;;;;;;;;;;-2.30;99.90;;;-3.19;64.18;95657.56;10498565;28;1911;-69
2022/03/04 06:37:12;;;;;;;;;;;-2.20;99.90;;;-3.17;64.04;95663.47;10515360;28;1823;-70
2022/03/04 06:42:16;;;;;;;;;;;-2.10;99.90;;;-3.19;64.58;95670.72;10515964;28;1828;-71
2022/03/04 06:47:20;;;;;;;;;;;-2.20;99.90;;;-3.09;63.87;95671.22;10496256;28;1815;-69
2022/03/04 06:52:23;;;;;;;;;;;-2.10;99.90;;;-2.95;63.86;95680.81;10518823;28;1962;-69
2022/03/04 06:57:26;;;;;;;;;;;-2.10;99.90;;;-2.91;64.30;95687.31;10514026;28;1926;-68
2022/03/04 07:02:29;;;;;;;;;;;-2.10;99.90;;;-2.73;63.26;95681.56;10502846;28;1833;-69
2022/03/04 07:07:33;;;;;;;;;;;-1.80;99.90;;;-2.67;63.55;95693.97;10519398;28;1851;-69
2022/03/04 07:12:35;;;;;;;;;;;-1.80;99.90;;;-2.49;63.13;95690.81;10502485;28;1922;-69
2022/03/04 07:17:38;;;;;;;;;;;-1.70;99.90;;;-2.38;61.46;95686.81;10519012;28;1813;-70
2022/03/04 07:22:42;;;;;;;;;;;-1.50;99.90;;;-2.34;61.06;95693.34;10527930;28;2234;-70
2022/03/04 07:27:45;;;;;;;;;;;-1.40;99.90;;;-2.21;60.78;95698.66;10505664;28;2022;-73
2022/03/04 07:32:49;;;;;;;;;;;-1.40;99.90;;;-2.06;60.61;95698.50;10563383;28;1922;-69
2022/03/04 07:37:52;;;;;;;;;;;-1.20;99.90;;;-1.96;59.83;95704.25;10557878;28;1826;-68
2022/03/04 07:42:56;;;;;;;;;;;-1.10;99.90;;;-1.78;60.31;95716.84;10558405;28;1908;-69
2022/03/04 07:47:59;;;;;;;;;;;-0.90;99.90;;;-1.60;58.97;95717.09;10548688;28;2042;-69
2022/03/04 07:53:02;;;;;;;;;;;-1.10;99.90;;;-1.45;58.53;95715.13;10528985;28;1898;-69
2022/03/04 07:58:05;;;;;;;;;;;-0.70;99.90;;;-1.28;57.00;95727.91;10527812;28;1919;-69
2022/03/04 08:03:08;;;;;;;;;;;-0.40;99.90;;;-1.14;55.36;95722.47;10499295;28;1870;-68
2022/03/04 08:08:11;;;;;;;;;;;-0.40;99.90;;;-1.11;53.93;95722.06;10499374;28;1978;-66
2022/03/04 08:13:14;;;;;;;;;;;-0.30;99.90;;;-0.99;54.28;95724.09;10514969;28;2154;-71
2022/03/04 08:18:17;;;;;;;;;;;-0.20;99.90;;;-0.92;55.40;95732.81;10525662;28;1894;-69
2022/03/04 08:23:19;;;;;;;;;;;-0.10;99.90;;;-0.83;54.81;95744.78;10518614;28;1934;-68
2022/03/04 08:28:22;;;;;;;;;;;0.00;99.90;;;-0.58;54.55;95742.34;10521583;28;1981;-70
2022/03/04 08:33:27;;;;;;;;;;;0.20;99.90;;;-0.53;53.48;95749.66;10509886;28;2034;-69
2022/03/04 08:38:30;;;;;;;;;;;0.40;99.90;;;-0.29;53.32;95746.38;10497192;28;1871;-69
2022/03/04 08:43:34;;;;;;;;;;;0.50;99.90;;;-0.23;53.11;95742.09;10500414;28;1970;-69
2022/03/04 08:48:37;;;;;;;;;;;0.60;99.90;;;-0.06;53.06;95746.75;10516188;28;2216;-68
2022/03/04 08:53:40;;;;;;;;;;;0.70;99.90;;;0.10;53.33;95744.66;10498050;28;2056;-70
2022/03/04 08:58:44;;;;;;;;;;;0.90;99.90;;;0.36;52.73;95747.19;10507286;28;1939;-70
2022/03/04 09:03:47;;;;;;;;;;;1.10;99.90;;;0.25;53.20;95750.47;10501440;28;2422;-69
2022/03/04 09:08:49;;;;;;;;;;;1.20;99.90;;;0.57;52.88;95735.47;10514558;28;1914;-69
2022/03/04 09:13:52;;;;;;;;;;;1.30;99.90;;;0.85;50.83;95743.06;10523060;28;1849;-69
2022/03/04 09:18:55;;;;;;;;;;;1.60;99.90;;;1.24;49.81;95736.69;10506378;28;1699;-68
2022/03/04 09:23:58;;;;;;;;;;;1.90;99.90;;;1.26;47.38;95733.81;10508177;28;1804;-71
2022/03/04 09:29:01;;;;;;;;;;;2.00;98.00;;;1.33;46.52;95732.72;10511937;28;1980;-69
2022/03/04 09:34:04;;;;;;;;;;;2.20;98.50;;;1.40;47.36;95738.00;10549928;28;1864;-70
2022/03/04 09:39:08;;;;;;;;;;;2.30;98.00;;;1.66;47.01;95730.84;10533817;28;1843;-70
2022/03/04 09:44:11;;;;;;;;;;;2.50;97.90;;;1.77;46.42;95728.25;10562360;28;1472;-70
2022/03/04 09:49:14;;;;;;;;;;;2.60;94.90;;;1.84;46.51;95721.03;10553612;28;1926;-69
2022/03/04 09:54:17;;;;;;;;;;;2.70;95.90;;;1.94;46.33;95728.50;10537088;28;1847;-71
2022/03/04 09:59:20;;;;;;;;;;;2.80;99.90;;;2.01;46.18;95721.28;10557801;28;1883;-68
2022/03/04 10:04:24;;;;;;;;;;;2.90;99.90;;;2.49;45.52;95709.91;10540862;28;1835;-69
2022/03/04 10:09:27;;;;;;;;;;;3.10;96.70;;;2.43;45.19;95703.63;10510356;28;1914;-70
2022/03/04 10:14:31;;;;;;;;;;;3.40;93.30;;;2.62;44.87;95708.91;10528546;28;1804;-69
2022/03/04 10:19:37;;;;;;;;;;;3.40;93.40;;;2.67;44.54;95712.50;10523423;28;1824;-68
2022/03/04 10:24:41;;;;;;;;;;;3.60;93.30;;;2.88;43.56;95700.56;10522473;28;2317;-69
2022/03/04 10:29:44;;;;;;;;;;;3.70;92.10;;;3.16;42.34;95702.56;10529164;28;1971;-68
2022/03/04 10:34:48;;;;;;;;;;;3.90;95.40;;;3.24;41.84;95694.28;10524928;28;1781;-71
2022/03/04 10:45:03;;;;;;;;;;;4.10;89.00;;;2.98;41.03;95698.16;10413841;28;1897;-70
2022/03/04 10:50:06;;;;;;;;;;;4.00;88.50;;;3.00;40.63;95695.28;10408839;28;1910;-70
2022/03/04 10:55:08;;;;;;;;;;;4.00;88.30;;;3.31;40.41;95696.00;10409060;28;2010;-72
2022/03/04 11:00:11;;;;;;;;;;;4.00;88.80;;;3.28;40.68;95699.13;10410326;28;2072;-70
2022/03/04 11:05:14;;;;;;;;;;;4.10;88.20;;;3.29;40.48;95696.25;10407788;28;1915;-70
2022/03/04 11:10:17;;;;;;;;;;;4.10;88.20;;;3.16;41.48;95686.63;10412953;28;1918;-70
2022/03/04 11:15:20;;;;;;;;;;;4.20;88.70;;;3.34;41.33;95685.75;10414717;28;1815;-71
2022/03/04 11:20:23;;;;;;;;;;;4.20;88.80;;;3.29;40.67;95680.31;10393407;28;1907;-72
2022/03/04 11:25:26;;;;;;;;;;;4.30;88.50;;;3.20;41.54;95682.50;10414470;28;1835;-71
2022/03/04 11:30:29;;;;;;;;;;;4.10;88.60;;;3.54;40.63;95672.09;10395287;28;1910;-70
2022/03/04 11:35:32;;;;;;;;;;;4.40;88.80;;;3.51;40.93;95672.59;10411236;28;1847;-72
2022/03/04 11:40:35;;;;;;;;;;;4.40;88.10;;;3.49;40.80;95669.34;10404579;28;1752;-71
2022/03/04 11:45:38;;;;;;;;;;;4.40;87.70;;;3.48;41.53;95673.03;10403934;28;1717;-70
2022/03/04 11:50:41;;;;;;;;;;;4.40;88.20;;;3.37;41.15;95663.19;10404193;28;1988;-73
2022/03/04 11:55:45;;;;;;;;;;;4.40;87.90;;;3.40;39.27;95670.72;10402266;28;1760;-72
2022/03/04 12:00:48;;;;;;;;;;;4.30;86.30;;;3.43;40.32;95660.44;10403130;28;2004;-71
2022/03/04 12:05:52;;;;;;;;;;;4.30;86.70;;;3.41;41.02;95656.41;10389656;28;1825;-70
2022/03/04 12:10:56;;;;;;;;;;;4.40;87.80;;;3.51;40.67;95654.78;10402723;28;1985;-71
2022/03/04 12:15:59;;;;;;;;;;;4.40;87.50;;;3.65;39.73;95651.88;10386826;28;1943;-73
2022/03/04 12:21:03;;;;;;;;;;;4.50;86.70;;;3.93;40.45;95645.81;10405590;28;1795;-71
2022/03/04 12:26:06;;;;;;;;;;;4.70;87.50;;;4.07;40.50;95639.19;10404649;28;1850;-72
2022/03/04 12:31:09;;;;;;;;;;;4.90;87.70;;;4.05;42.35;95635.97;10384841;28;1985;-71
2022/03/04 12:36:13;;;;;;;;;;;4.90;89.40;;;3.90;40.66;95638.31;10407240;28;1894;-71
2022/03/04 12:41:17;;;;;;;;;;;4.90;86.80;;;3.97;41.27;95628.38;10395287;28;1862;-69
2022/03/04 12:46:20;;;;;;;;;;;4.80;88.00;;;4.02;41.46;95637.25;10387592;28;2382;-70
2022/03/04 12:51:23;;;;;;;;;;;4.80;88.30;;;3.83;42.05;95645.63;10404189;28;1910;-70
2022/03/04 12:56:25;;;;;;;;;;;4.90;88.20;;;3.89;40.57;95639.38;10399931;28;1862;-70
2022/03/04 13:01:28;;;;;;;;;;;4.80;87.50;;;3.96;40.58;95642.72;10398917;28;1890;-69
2022/03/04 13:06:32;;;;;;;;;;;4.90;87.40;;;3.80;40.53;95644.22;10404216;28;1787;-70
2022/03/04 13:11:39;;;;;;;;;;;4.80;87.00;;;3.88;40.26;95638.56;10397487;28;1914;-71
2022/03/04 13:16:41;;;;;;;;;;;4.70;86.40;;;4.06;38.74;95637.56;10403390;28;1866;-69
2022/03/04 13:21:45;;;;;;;;;;;4.90;85.50;;;3.85;39.66;95641.69;10402695;28;1958;-70
2022/03/04 13:26:48;;;;;;;;;;;4.70;85.80;;;3.96;39.00;95635.53;10402460;28;1877;-70
2022/03/04 13:31:53;;;;;;;;;;;4.80;85.40;;;3.76;37.05;95638.59;10401208;28;1973;-71
2022/03/04 13:36:59;;;;;;;;;;;4.70;83.10;;;3.90;36.38;95644.44;10404562;28;1842;-70
2022/03/04 13:42:02;;;;;;;;;;;4.80;82.60;;;3.77;36.55;95636.72;10383695;28;1804;-70
2022/03/04 13:47:05;;;;;;;;;;;4.70;82.20;;;4.03;37.54;95627.41;10384256;28;1796;-71
2022/03/04 13:52:08;;;;;;;;;;;4.80;83.10;;;3.94;36.25;95647.44;10401999;28;1931;-71
2022/03/04 13:57:10;;;;;;;;;;;4.80;81.90;;;3.76;36.91;95643.09;10395939;28;1890;-69
2022/03/04 14:02:15;;;;;;;;;;;4.80;82.30;;;3.87;38.28;95649.41;10403388;28;1791;-70
2022/03/04 14:07:19;;;;;;;;;;;4.70;83.20;;;3.86;37.13;95653.13;10403923;28;1933;-71
2022/03/04 14:12:23;;;;;;;;;;;4.70;82.70;;;3.82;39.16;95649.31;10423425;28;1975;-71
2022/03/04 14:17:26;;;;;;;;;;;4.70;84.50;;;3.96;38.95;95648.03;10417444;28;1751;-71
2022/03/04 14:22:29;;;;;;;;;;;4.90;84.30;;;4.00;38.59;95654.47;10394975;28;2169;-70
2022/03/04 14:27:32;;;;;;;;;;;4.80;84.70;;;3.86;38.71;95648.59;10409074;28;1924;-69
2022/03/04 14:32:35;;;;;;;;;;;4.80;84.10;;;3.87;38.55;95649.41;10406349;28;1978;-68
2022/03/04 14:37:39;;;;;;;;;;;4.80;84.30;;;3.99;38.12;95652.88;10404698;28;1818;-69
2022/03/04 14:42:43;;;;;;;;;;;4.90;84.10;;;3.78;38.68;95655.09;10407631;28;1779;-69
2022/03/04 14:47:46;;;;;;;;;;;4.80;84.20;;;3.73;39.33;95639.03;10406344;28;2240;-69
2022/03/04 14:52:49;;;;;;;;;;;4.60;84.40;;;3.96;38.14;95640.06;10404014;28;1993;-69
2022/03/04 14:57:59;;;;;;;;;;;4.70;83.70;;;3.83;37.66;95648.28;10390921;28;1872;-69
2022/03/04 15:03:02;;;;;;;;;;;4.80;82.40;;;3.75;37.92;95631.66;10409466;28;1898;-69
2022/03/04 15:08:05;;;;;;;;;;;4.70;83.10;;;3.90;37.55;95638.31;10391325;28;1870;-69
2022/03/04 15:13:10;;;;;;;;;;;4.70;83.10;;;3.91;36.90;95640.75;10387727;28;1887;-70
2022/03/04 15:18:13;;;;;;;;;;;4.80;82.00;;;3.91;36.84;95639.94;10407863;28;1914;-70
2022/03/04 15:23:16;;;;;;;;;;;4.70;81.80;;;3.88;37.35;95640.38;10401218;28;1852;-71
2022/03/04 15:28:31;;;;;;;;;;;4.80;81.80;;;4.13;36.58;95638.25;10402835;28;1871;-69
2022/03/04 15:33:47;;;;;;;;;;;4.90;82.00;;;4.32;36.98;95639.69;10403156;28;2341;-71
2022/03/04 15:38:51;;;;;;;;;;;5.00;82.10;;;4.37;36.82;95638.16;10400685;28;1819;-71
2022/03/04 15:43:53;;;;;;;;;;;5.20;82.40;;;4.11;41.20;95640.34;10407957;28;1780;-71
2022/03/04 15:48:57;;;;;;;;;;;5.10;86.40;;;4.02;42.15;95642.56;10409746;28;1830;-70
2022/03/04 15:54:00;;;;;;;;;;;5.10;87.50;;;3.70;41.07;95636.84;10404983;28;2063;-69
2022/03/04 15:59:04;;;;;;;;;;;4.90;86.70;;;3.65;42.00;95644.72;10406989;28;1889;-71
2022/03/04 16:04:08;;;;;;;;;;;4.80;87.30;;;3.60;41.92;95651.78;10404216;28;2409;-70
2022/03/04 16:09:11;;;;;;;;;;;4.70;87.10;;;3.55;40.92;95655.13;10387108;28;1911;-72
2022/03/04 16:14:13;;;;;;;;;;;4.60;86.60;;;3.52;39.49;95652.94;10387437;28;1931;-69
2022/03/04 16:19:16;;;;;;;;;;;4.60;84.90;;;3.38;38.69;95662.19;10387667;28;1831;-69
2022/03/04 16:24:19;;;;;;;;;;;4.60;84.00;;;3.23;39.33;95666.09;10405049;28;2432;-69
2022/03/04 16:29:23;;;;;;;;;;;4.30;84.20;;;3.19;39.77;95675.56;10403323;28;1807;-70
2022/03/04 16:34:26;;;;;;;;;;;4.20;84.50;;;3.13;40.49;95681.81;10403546;28;1986;-69
2022/03/04 16:39:30;;;;;;;;;;;4.20;84.90;;;2.97;41.21;95685.09;10376973;28;1962;-69
2022/03/04 16:44:33;;;;;;;;;;;4.10;85.90;;;2.86;43.19;95688.53;10401797;28;2009;-71
2022/03/04 16:49:37;;;;;;;;;;;4.00;87.60;;;2.58;44.89;95687.31;10404018;28;1810;-69
2022/03/04 16:54:40;;;;;;;;;;;3.70;89.20;;;2.37;46.16;95693.91;10385388;28;2030;-72
2022/03/04 16:59:44;;;;;;;;;;;3.50;90.30;;;2.22;46.89;95701.44;10396291;28;1898;-71
2022/03/04 17:04:48;;;;;;;;;;;3.40;91.10;;;2.07;47.63;95699.19;10385678;28;1833;-70
2022/03/04 17:09:51;;;;;;;;;;;3.30;92.00;;;1.93;48.25;95703.00;10379713;28;1914;-70
2022/03/04 17:14:55;;;;;;;;;;;3.10;92.70;;;1.79;48.80;95704.19;10385424;28;1991;-71
2022/03/04 17:19:59;;;;;;;;;;;3.00;93.20;;;1.67;49.22;95711.25;10400661;28;2120;-71
2022/03/04 17:25:07;;;;;;;;;;;2.80;93.60;;;1.43;50.60;95719.00;10410596;28;1934;-72
2022/03/04 17:30:11;;;;;;;;;;;2.70;94.10;;;1.46;49.75;95713.25;10404272;28;1863;-71
2022/03/04 17:35:14;;;;;;;;;;;2.60;94.20;;;1.36;50.42;95723.56;10405843;28;2040;-71
2022/03/04 17:40:17;;;;;;;;;;;2.50;94.70;;;1.30;50.78;95735.00;10407083;28;1792;-72
2022/03/04 17:45:20;;;;;;;;;;;2.40;94.90;;;1.22;50.94;95733.44;10400764;28;1830;-71
2022/03/04 17:50:23;;;;;;;;;;;2.30;95.20;;;1.14;51.22;95752.22;10396147;28;1792;-71
2022/03/04 17:55:26;;;;;;;;;;;2.30;95.30;;;1.08;51.81;95745.13;10392191;28;1988;-71
2022/03/04 18:00:29;;;;;;;;;;;2.20;95.70;;;0.89;52.46;95738.97;10398527;28;1871;-70
2022/03/04 18:05:32;;;;;;;;;;;2.10;96.30;;;0.82;52.82;95743.47;10400925;28;1880;-71
2022/03/04 18:10:36;;;;;;;;;;;2.00;96.50;;;0.86;52.99;95741.22;10397133;28;1819;-70
2022/03/04 18:15:44;;;;;;;;;;;2.00;97.10;;;0.85;53.10;95748.38;10401361;28;1917;-70
2022/03/04 18:20:47;;;;;;;;;;;1.90;97.30;;;0.75;53.38;95754.09;10384863;28;1834;-70
2022/03/04 18:25:50;;;;;;;;;;;1.90;97.40;;;0.64;53.83;95756.63;10398182;28;1810;-70
2022/03/04 18:30:54;;;;;;;;;;;1.90;97.70;;;0.54;54.26;95760.53;10401163;28;1981;-72
2022/03/04 18:35:57;;;;;;;;;;;1.80;98.10;;;0.40;54.99;95766.91;10384884;28;1814;-70
2022/03/04 18:41:01;;;;;;;;;;;1.70;98.40;;;0.40;55.40;95776.69;10381137;28;1835;-72
2022/03/04 18:46:22;;;;;;;;;;;1.60;98.80;;;0.33;55.12;95766.13;10399115;28;1850;-71
2022/03/04 18:51:25;;;;;;;;;;;1.50;98.90;;;0.31;54.86;95768.16;10383592;28;1922;-70
2022/03/04 18:56:28;;;;;;;;;;;1.50;99.10;;;0.17;55.65;95777.16;10408553;28;1886;-71
2022/03/04 19:01:31;;;;;;;;;;;1.40;99.30;;;0.21;55.45;95773.91;10406686;28;1885;-70
2022/03/04 19:06:35;;;;;;;;;;;1.30;99.70;;;0.13;56.05;95786.53;10389634;28;1890;-71
2022/03/04 19:11:38;;;;;;;;;;;1.30;99.90;;;-0.06;57.12;95775.81;10388842;28;1981;-70
2022/03/04 19:16:41;;;;;;;;;;;1.20;99.90;;;-0.06;56.94;95778.47;10404237;28;1481;-70
2022/03/04 19:21:45;;;;;;;;;;;1.20;99.90;;;-0.25;57.62;95779.31;10395068;28;1615;-71
2022/03/04 19:26:49;;;;;;;;;;;1.00;99.90;;;-0.27;57.72;95776.03;10424045;22;2443;-68
2022/03/04 19:31:52;;;;;;;;;;;0.90;99.90;;;-0.38;58.66;95779.28;10489399;28;2696;-69
2022/03/04 19:36:56;;;;;;;;;;;0.90;99.90;;;-0.45;58.68;95778.50;10490119;28;1862;-69
2022/03/04 19:42:01;;;;;;;;;;;0.80;99.90;;;-0.48;59.69;95785.00;10491390;28;1744;-70
2022/03/04 19:47:03;;;;;;;;;;;0.70;99.90;;;-0.51;59.43;95795.16;10494717;28;2444;-68
2022/03/04 19:52:07;;;;;;;;;;;0.70;99.90;;;-0.66;59.76;95796.16;10489797;28;1983;-70
2022/03/04 19:57:11;;;;;;;;;;;0.60;99.90;;;-0.77;60.72;95798.59;10486928;28;1810;-69
2022/03/04 20:02:14;;;;;;;;;;;0.50;99.90;;;-0.81;61.30;95792.94;10504478;28;1784;-70
2022/03/04 20:07:17;;;;;;;;;;;0.50;99.90;;;-0.88;61.85;95787.66;10518231;28;1824;-70
2022/03/04 20:12:20;;;;;;;;;;;0.40;99.90;;;-0.94;61.37;95792.91;10492905;28;1913;-70
2022/03/04 20:17:24;;;;;;;;;;;0.30;99.90;;;-0.93;60.89;95802.44;10495540;28;1867;-69
2022/03/04 20:22:27;;;;;;;;;;;0.20;99.90;;;-0.96;61.62;95795.72;10493068;28;1856;-67
2022/03/04 20:27:30;;;;;;;;;;;0.20;99.90;;;-1.03;62.03;95802.81;10517218;28;1861;-68
2022/03/04 20:32:36;;;;;;;;;;;0.20;99.90;;;-1.07;62.79;95811.38;10499736;28;1899;-71
2022/03/04 20:37:39;;;;;;;;;;;0.10;99.90;;;-1.20;62.96;95806.88;10492435;28;1890;-69
2022/03/04 20:42:43;;;;;;;;;;;0.10;99.90;;;-1.20;63.35;95802.41;10485882;28;1780;-68
2022/03/04 20:47:46;;;;;;;;;;;0.10;99.90;;;-1.27;63.89;95801.59;10497175;28;1781;-69
2022/03/04 20:52:50;;;;;;;;;;;-0.20;99.90;;;-1.27;63.97;95806.84;10516647;28;1989;-69
2022/03/04 20:57:53;;;;;;;;;;;-0.20;99.90;;;-1.39;64.85;95803.16;10520721;28;1855;-68
2022/03/04 21:02:56;;;;;;;;;;;-0.20;99.90;;;-1.42;65.25;95814.91;10539987;28;1666;-68
2022/03/04 21:07:59;;;;;;;;;;;-0.10;99.90;;;-1.42;64.77;95814.09;10520596;28;1819;-69
2022/03/04 21:13:02;;;;;;;;;;;-0.10;99.90;;;-1.41;65.09;95821.78;10516017;28;1891;-71
2022/03/04 21:18:06;;;;;;;;;;;-0.10;99.90;;;-1.46;64.92;95810.25;10508786;28;1951;-69
2022/03/04 21:23:09;;;;;;;;;;;-0.20;99.90;;;-1.48;64.91;95814.88;10501753;28;1851;-69
2022/03/04 21:28:12;;;;;;;;;;;-0.40;99.90;;;-1.53;65.51;95818.09;10504596;28;1563;-69
2022/03/04 21:33:15;;;;;;;;;;;-0.50;99.90;;;-1.55;65.79;95814.03;10488673;28;1983;-69
2022/03/04 21:38:19;;;;;;;;;;;-0.50;99.90;;;-1.61;66.69;95809.56;10487982;28;1447;-69
2022/03/04 21:43:22;;;;;;;;;;;-0.50;99.90;;;-1.72;67.36;95814.41;10508670;28;2320;-67
2022/03/04 21:48:24;;;;;;;;;;;-0.40;99.90;;;-1.75;67.80;95808.69;10521590;28;1514;-68
2022/03/04 21:53:27;;;;;;;;;;;-0.50;99.90;;;-1.66;67.45;95805.69;10517428;28;1913;-67
2022/03/04 21:58:30;;;;;;;;;;;-0.50;99.90;;;-1.83;68.79;95809.69;10526779;28;1682;-67
2022/03/04 22:03:33;;;;;;;;;;;-0.50;99.90;;;-1.76;68.90;95797.34;10522798;28;1475;-66
2022/03/04 22:08:36;;;;;;;;;;;-0.50;99.90;;;-1.77;68.88;95801.00;10515491;28;1450;-66
2022/03/04 22:13:40;;;;;;;;;;;-0.60;99.90;;;-1.87;69.04;95799.72;10520021;28;1922;-67
2022/03/04 22:18:43;;;;;;;;;;;-0.60;99.90;;;-1.88;68.84;95809.44;10505093;28;1744;-69
2022/03/04 22:23:46;;;;;;;;;;;-0.50;99.90;;;-2.01;69.74;95788.31;10491963;28;2255;-68
2022/03/04 22:28:49;;;;;;;;;;;-0.90;99.90;;;-2.23;70.26;95793.66;10486575;28;1607;-68
2022/03/04 22:33:52;;;;;;;;;;;-1.10;99.90;;;-2.35;71.30;95792.56;10495097;28;1993;-67
2022/03/04 22:38:55;;;;;;;;;;;-1.20;99.90;;;-2.38;71.98;95787.66;10488169;28;1565;-69
2022/03/04 22:43:59;;;;;;;;;;;-1.30;99.90;;;-2.42;72.06;95781.16;10483154;28;1593;-67
2022/03/04 22:49:01;;;;;;;;;;;-1.30;99.90;;;-2.45;71.98;95784.19;10493992;28;1865;-71
2022/03/04 22:54:08;;;;;;;;;;;-1.40;99.90;;;-2.53;72.82;95790.41;10495436;28;1906;-68
2022/03/04 22:59:11;;;;;;;;;;;-1.40;99.90;;;-2.51;73.20;95787.59;10503074;28;1864;-67
2022/03/04 23:09:35;;;;;;;;;;;-1.40;99.90;;;-2.51;73.51;95779.69;10509924;28;1813;-67
2022/03/04 23:14:39;;;;;;;;;;;-1.50;99.90;;;-2.52;74.31;95788.59;10511993;28;2026;-67
2022/03/04 23:19:42;;;;;;;;;;;-1.50;99.90;;;-2.62;75.33;95802.06;10499955;28;1885;-68
2022/03/04 23:24:46;;;;;;;;;;;-1.50;99.90;;;-2.57;75.91;95793.59;10496754;28;1802;-70
2022/03/04 23:29:50;;;;;;;;;;;-1.50;99.90;;;-2.62;77.46;95794.16;10509308;28;2005;-69
2022/03/04 23:34:53;;;;;;;;;;;-1.60;99.90;;;-2.61;77.56;95792.34;10509465;28;1972;-67
2022/03/04 23:39:57;;;;;;;;;;;-1.50;99.90;;;-2.74;78.30;95791.25;10498922;28;1858;-67